createdAt,value
2022-10-13T00:01:18.899Z,27.72
2022-10-13T00:03:47.780Z,27.68
2022-10-13T00:06:18.920Z,27.71
2022-10-13T00:08:47.499Z,27.69
2022-10-13T00:11:18.483Z,27.69
2022-10-13T00:13:48.033Z,27.64
2022-10-13T00:16:19.079Z,27.67
2022-10-13T00:18:47.709Z,27.67
2022-10-13T00:21:18.529Z,27.60
2022-10-13T00:23:47.147Z,27.63
2022-10-13T00:26:16.468Z,27.63
2022-10-13T00:28:48.408Z,27.61
2022-10-13T00:31:21.746Z,27.63
2022-10-13T00:33:50.272Z,27.57
2022-10-13T00:36:18.630Z,27.55
2022-10-13T00:38:46.831Z,27.57
2022-10-13T00:41:15.310Z,27.52
2022-10-13T00:44:03.775Z,27.48
2022-10-13T00:46:37.263Z,27.51
2022-10-13T00:49:09.495Z,27.49
2022-10-13T00:51:45.605Z,27.52
2022-10-13T00:54:14.828Z,27.52
2022-10-13T00:56:43.332Z,27.51
2022-10-13T00:59:23.199Z,27.47
2022-10-13T01:01:51.669Z,27.50
2022-10-13T01:04:22.828Z,27.51
2022-10-13T01:06:52.513Z,27.47
2022-10-13T01:09:20.716Z,27.50
2022-10-13T01:11:55.856Z,27.50
2022-10-13T01:14:38.947Z,27.46
2022-10-13T01:17:09.937Z,27.48
2022-10-13T01:19:59.725Z,27.45
2022-10-13T01:22:46.637Z,27.47
2022-10-13T01:25:39.982Z,27.45
2022-10-13T01:28:33.668Z,27.49
2022-10-13T01:31:14.540Z,27.49
2022-10-13T01:33:46.043Z,27.45
2022-10-13T01:36:30.626Z,27.45
2022-10-13T01:39:08.119Z,27.41
2022-10-13T01:41:39.137Z,27.46
2022-10-13T01:44:10.467Z,27.44
2022-10-13T01:46:39.169Z,27.42
2022-10-13T01:49:11.668Z,27.43
2022-10-13T01:51:41.651Z,27.42
2022-10-13T01:54:09.987Z,27.39
2022-10-13T01:56:38.140Z,27.35
2022-10-13T01:59:12.344Z,27.33
2022-10-13T02:02:08.722Z,27.36
2022-10-13T02:04:46.410Z,27.41
2022-10-13T02:07:19.313Z,27.33
2022-10-13T02:10:31.627Z,27.33
2022-10-13T02:13:00.483Z,27.38
2022-10-13T02:15:38.130Z,27.32
2022-10-13T02:18:08.211Z,27.33
2022-10-13T02:20:37.151Z,27.31
2022-10-13T02:23:10.453Z,27.32
2022-10-13T02:25:39.085Z,27.28
2022-10-13T02:28:07.591Z,27.30
2022-10-13T02:30:36.151Z,27.29
2022-10-13T02:33:04.531Z,27.30
2022-10-13T02:35:33.278Z,27.28
2022-10-13T02:38:02.288Z,27.28
2022-10-13T02:40:30.505Z,27.29
2022-10-13T02:42:58.708Z,27.28
2022-10-13T02:45:27.557Z,27.27
2022-10-13T02:47:58.147Z,27.27
2022-10-13T02:50:26.448Z,27.25
2022-10-13T02:52:54.601Z,27.25
2022-10-13T02:55:22.997Z,27.29
2022-10-13T02:57:51.131Z,27.31
2022-10-13T03:00:19.650Z,27.27
2022-10-13T03:02:47.871Z,27.28
2022-10-13T03:05:15.993Z,27.26
2022-10-13T03:07:44.262Z,27.27
2022-10-13T03:10:12.394Z,27.26
2022-10-13T03:12:40.622Z,27.24
2022-10-13T03:15:09.349Z,27.24
2022-10-13T03:17:37.493Z,27.24
2022-10-13T03:20:07.018Z,27.21
2022-10-13T03:22:35.191Z,27.22
2022-10-13T03:25:04.040Z,27.20
2022-10-13T03:27:32.415Z,27.18
2022-10-13T03:30:00.573Z,27.19
2022-10-13T03:32:31.387Z,27.19
2022-10-13T03:34:59.525Z,27.16
2022-10-13T03:37:30.773Z,27.20
2022-10-13T03:39:59.008Z,27.17
2022-10-13T03:42:27.086Z,27.16
2022-10-13T03:44:56.577Z,27.17
2022-10-13T03:47:24.982Z,27.15
2022-10-13T03:49:55.357Z,27.15
2022-10-13T03:52:23.593Z,27.14
2022-10-13T03:54:51.730Z,27.13
2022-10-13T03:57:19.841Z,27.14
2022-10-13T03:59:48.096Z,27.15
2022-10-13T04:02:16.290Z,27.12
2022-10-13T04:04:44.551Z,27.14
2022-10-13T04:07:12.709Z,27.13
2022-10-13T04:09:40.890Z,27.15
2022-10-13T04:12:08.976Z,27.10
2022-10-13T04:14:37.161Z,27.09
2022-10-13T04:17:05.391Z,27.07
2022-10-13T04:19:33.525Z,27.08
2022-10-13T04:22:01.763Z,27.10
2022-10-13T04:24:29.937Z,27.09
2022-10-13T04:26:58.185Z,27.07
2022-10-13T04:29:26.384Z,27.04
2022-10-13T04:31:54.540Z,27.05
2022-10-13T04:34:22.683Z,27.01
2022-10-13T04:36:51.987Z,27.01
2022-10-13T04:39:20.235Z,27.02
2022-10-13T04:41:48.428Z,27.03
2022-10-13T04:44:16.479Z,27.03
2022-10-13T04:46:44.748Z,27.04
2022-10-13T04:49:12.859Z,27.04
2022-10-13T04:51:41.048Z,27.06
2022-10-13T04:54:09.736Z,27.02
2022-10-13T04:56:37.934Z,27.05
2022-10-13T04:59:06.146Z,27.06
2022-10-13T05:01:36.145Z,27.07
2022-10-13T05:04:05.451Z,27.06
2022-10-13T05:06:39.300Z,27.06
2022-10-13T05:09:17.018Z,27.14
2022-10-13T05:11:45.216Z,27.14
2022-10-13T05:14:13.409Z,27.14
2022-10-13T05:16:41.566Z,27.11
2022-10-13T05:19:09.750Z,26.95
2022-10-13T05:21:37.843Z,26.86
2022-10-13T05:24:06.717Z,26.55
2022-10-13T05:26:36.368Z,26.67
2022-10-13T05:29:04.551Z,26.77
2022-10-13T05:31:34.552Z,26.76
2022-10-13T05:34:02.905Z,26.82
2022-10-13T05:36:33.582Z,26.83
2022-10-13T05:39:04.620Z,26.79
2022-10-13T05:41:32.926Z,26.92
2022-10-13T05:44:07.263Z,26.83
2022-10-13T05:46:35.963Z,26.80
2022-10-13T05:49:04.523Z,26.98
2022-10-13T05:51:35.785Z,26.96
2022-10-13T05:54:27.203Z,26.91
2022-10-13T05:56:59.061Z,27.01
2022-10-13T05:59:27.841Z,27.11
2022-10-13T06:01:56.463Z,27.22
2022-10-13T06:04:33.580Z,27.13
2022-10-13T06:07:01.899Z,27.22
2022-10-13T06:09:35.029Z,27.16
2022-10-13T06:12:03.298Z,27.21
2022-10-13T06:14:31.489Z,27.21
2022-10-13T06:16:59.844Z,27.23
2022-10-13T06:19:27.947Z,27.32
2022-10-13T06:21:59.954Z,27.52
2022-10-13T06:24:30.902Z,27.57
2022-10-13T06:26:59.009Z,27.55
2022-10-13T06:29:27.208Z,27.58
2022-10-13T06:31:55.323Z,27.55
2022-10-13T06:34:23.560Z,27.60
2022-10-13T06:36:51.624Z,27.57
2022-10-13T06:39:19.776Z,27.55
2022-10-13T06:41:48.459Z,27.55
2022-10-13T06:44:16.700Z,27.63
2022-10-13T06:46:44.859Z,27.71
2022-10-13T06:49:12.956Z,27.76
2022-10-13T06:51:41.218Z,27.71
2022-10-13T06:54:09.366Z,27.37
2022-10-13T06:56:37.637Z,27.79
2022-10-13T06:59:05.700Z,27.76
2022-10-13T07:01:36.767Z,27.82
2022-10-13T07:04:09.439Z,27.91
2022-10-13T07:06:37.591Z,27.96
2022-10-13T07:09:06.921Z,27.97
2022-10-13T07:11:36.033Z,27.92
2022-10-13T07:14:04.289Z,28.18
2022-10-13T07:16:32.641Z,28.19
2022-10-13T07:19:00.731Z,28.22
2022-10-13T07:21:28.865Z,28.23
2022-10-13T07:23:57.060Z,28.27
2022-10-13T07:26:25.296Z,28.31
2022-10-13T07:28:53.645Z,28.46
2022-10-13T07:31:23.273Z,28.51
2022-10-13T07:33:51.917Z,28.45
2022-10-13T07:36:20.352Z,28.47
2022-10-13T07:38:48.569Z,28.46
2022-10-13T07:41:16.990Z,28.58
2022-10-13T07:43:45.244Z,28.53
2022-10-13T07:46:15.419Z,28.70
2022-10-13T07:48:43.583Z,28.70
2022-10-13T07:51:13.812Z,28.66
2022-10-13T07:53:43.256Z,28.69
2022-10-13T07:56:13.233Z,28.74
2022-10-13T07:58:44.783Z,28.67
2022-10-13T08:01:13.683Z,28.77
2022-10-13T08:03:45.574Z,28.72
2022-10-13T08:06:17.379Z,28.75
2022-10-13T08:08:46.031Z,28.73
2022-10-13T08:11:16.742Z,28.72
2022-10-13T08:13:50.396Z,28.68
2022-10-13T08:16:19.299Z,28.72
2022-10-13T08:18:49.039Z,28.72
2022-10-13T08:24:09.338Z,28.77
2022-10-13T08:26:37.549Z,28.67
2022-10-13T08:29:23.082Z,28.73
2022-10-13T08:31:53.977Z,28.76
2022-10-13T08:34:26.001Z,28.72
2022-10-13T08:36:56.678Z,28.75
2022-10-13T08:39:25.581Z,28.77
2022-10-13T08:41:57.514Z,28.70
2022-10-13T08:45:15.697Z,28.84
2022-10-13T08:47:47.702Z,28.79
2022-10-13T08:50:19.333Z,28.75
2022-10-13T08:52:55.203Z,28.74
2022-10-13T08:55:58.800Z,28.77
2022-10-13T08:58:35.467Z,28.81
2022-10-13T09:01:09.851Z,28.80
2022-10-13T09:03:52.744Z,28.77
2022-10-13T09:06:47.506Z,28.79
2022-10-13T09:09:16.653Z,28.86
2022-10-13T09:11:47.187Z,28.82
2022-10-13T09:14:27.805Z,28.79
2022-10-13T09:16:58.211Z,28.77
2022-10-13T09:19:39.064Z,28.76
2022-10-13T09:22:24.927Z,28.79
2022-10-13T09:25:22.576Z,28.85
2022-10-13T09:27:53.241Z,28.86
2022-10-13T09:30:41.319Z,28.77
2022-10-13T09:33:09.551Z,28.85
2022-10-13T09:36:05.026Z,28.81
2022-10-13T09:38:34.189Z,28.84
2022-10-13T09:41:06.020Z,28.79
2022-10-13T09:43:38.866Z,28.78
2022-10-13T09:46:31.030Z,28.76
2022-10-13T09:49:09.316Z,28.77
2022-10-13T09:51:41.263Z,28.76
2022-10-13T09:54:35.791Z,28.78
2022-10-13T09:57:12.290Z,28.93
2022-10-13T09:59:46.069Z,28.85
2022-10-13T10:02:42.621Z,28.95
2022-10-13T10:05:30.030Z,28.94
2022-10-13T10:08:06.136Z,29.05
2022-10-13T10:10:40.600Z,29.03
2022-10-13T10:13:12.475Z,29.02
2022-10-13T10:15:51.297Z,29.00
2022-10-13T10:18:47.526Z,29.06
2022-10-13T10:21:43.572Z,29.17
2022-10-13T10:24:17.830Z,29.14
2022-10-13T10:26:52.225Z,29.07
2022-10-13T10:29:37.890Z,29.12
2022-10-13T10:32:15.236Z,29.09
2022-10-13T10:34:55.663Z,29.07
2022-10-13T10:37:59.700Z,29.06
2022-10-13T10:40:49.023Z,29.16
2022-10-13T10:43:38.505Z,29.19
2022-10-13T10:46:22.962Z,29.02
2022-10-13T10:49:03.619Z,28.92
2022-10-13T10:51:35.762Z,28.89
2022-10-13T10:54:15.908Z,28.87
2022-10-13T10:57:13.249Z,28.78
2022-10-13T11:00:05.987Z,28.80
2022-10-13T11:02:49.376Z,28.78
2022-10-13T11:05:17.706Z,28.69
2022-10-13T11:07:46.662Z,28.62
2022-10-13T11:10:16.569Z,28.63
2022-10-13T11:12:53.780Z,28.73
2022-10-13T11:15:25.702Z,28.70
2022-10-13T11:17:53.962Z,28.54
2022-10-13T11:20:22.085Z,28.59
2022-10-13T11:22:59.488Z,28.51
2022-10-13T11:25:42.585Z,28.49
2022-10-13T11:28:42.920Z,28.41
2022-10-13T11:31:14.133Z,28.46
2022-10-13T11:33:43.272Z,28.38
2022-10-13T11:36:36.104Z,28.40
2022-10-13T11:39:16.412Z,28.40
2022-10-13T11:42:12.649Z,28.37
2022-10-13T11:44:43.955Z,28.34
2022-10-13T11:47:29.454Z,28.31
2022-10-13T11:50:03.783Z,28.32
2022-10-13T11:53:09.526Z,28.31
2022-10-13T11:56:01.767Z,28.33
2022-10-13T11:58:34.027Z,28.28
2022-10-13T12:01:07.453Z,28.23
2022-10-13T12:03:38.543Z,28.19
2022-10-13T12:06:33.405Z,28.19
2022-10-13T12:09:17.652Z,28.17
2022-10-13T12:11:46.206Z,28.17
2022-10-13T12:14:34.506Z,28.12
2022-10-13T12:17:03.202Z,28.17
2022-10-13T12:19:32.678Z,28.11
2022-10-13T12:22:01.831Z,28.12
2022-10-13T12:24:30.956Z,28.12
2022-10-13T12:26:59.524Z,28.08
2022-10-13T12:29:33.424Z,28.04
2022-10-13T12:32:19.503Z,28.05
2022-10-13T12:34:47.606Z,28.02
2022-10-13T12:37:24.408Z,28.07
2022-10-13T12:39:53.105Z,28.10
2022-10-13T12:42:26.877Z,28.07
2022-10-13T12:44:56.093Z,28.00
2022-10-13T12:47:47.704Z,27.97
2022-10-13T12:50:30.717Z,27.98
2022-10-13T12:53:19.326Z,27.96
2022-10-13T12:56:06.019Z,27.93
2022-10-13T12:58:35.778Z,27.93
2022-10-13T13:01:10.666Z,27.91
2022-10-13T13:03:39.993Z,27.92
2022-10-13T13:06:14.257Z,27.89
2022-10-13T13:08:43.558Z,27.83
2022-10-13T13:11:23.831Z,27.87
2022-10-13T13:13:52.369Z,27.88
2022-10-13T13:16:23.625Z,27.89
2022-10-13T13:18:52.135Z,27.88
2022-10-13T13:21:20.586Z,27.98
2022-10-13T13:23:53.033Z,27.89
2022-10-13T13:26:23.831Z,27.82
2022-10-13T13:28:54.473Z,27.85
2022-10-13T13:31:24.477Z,27.79
2022-10-13T13:33:52.889Z,27.74
2022-10-13T13:36:26.115Z,27.74
2022-10-13T13:38:54.864Z,27.72
2022-10-13T13:41:27.921Z,27.76
2022-10-13T13:43:56.210Z,27.76
2022-10-13T13:46:25.724Z,27.78
2022-10-13T13:48:53.956Z,27.68
2022-10-13T13:51:22.232Z,27.72
2022-10-13T13:53:50.446Z,27.70
2022-10-13T13:56:20.255Z,27.71
2022-10-13T13:58:48.664Z,27.74
2022-10-13T14:01:17.095Z,27.71
2022-10-13T14:03:45.569Z,27.62
2022-10-13T14:06:19.123Z,27.54
2022-10-13T14:08:47.592Z,27.59
2022-10-13T14:11:15.953Z,27.50
2022-10-13T14:13:44.573Z,27.57
2022-10-13T14:16:17.962Z,27.55
2022-10-13T14:18:46.287Z,27.54
2022-10-13T14:21:14.466Z,27.51
2022-10-13T14:23:47.069Z,27.41
2022-10-13T14:26:15.507Z,27.36
2022-10-13T14:28:45.236Z,27.38
2022-10-13T14:31:13.583Z,27.46
2022-10-13T14:33:42.340Z,27.43
2022-10-13T14:36:10.734Z,27.43
2022-10-13T14:38:38.961Z,27.50
2022-10-13T14:41:07.552Z,27.66
2022-10-13T14:43:35.739Z,27.75
2022-10-13T14:46:05.293Z,27.75
2022-10-13T14:48:34.766Z,27.74
2022-10-13T14:51:11.519Z,27.77
2022-10-13T14:53:42.528Z,27.87
2022-10-13T14:56:23.177Z,27.86
2022-10-13T14:58:53.558Z,27.99
2022-10-13T15:01:22.102Z,27.99
2022-10-13T15:03:50.583Z,27.82
2022-10-13T15:06:24.089Z,27.87
2022-10-13T15:08:52.812Z,27.95
2022-10-13T15:11:21.797Z,27.93
2022-10-13T15:13:50.028Z,27.99
2022-10-13T15:16:23.205Z,27.87
2022-10-13T15:18:51.496Z,27.92
2022-10-13T15:21:20.253Z,27.92
2022-10-13T15:23:48.562Z,27.86
2022-10-13T15:26:18.605Z,27.87
2022-10-13T15:28:48.766Z,27.86
2022-10-13T15:31:18.236Z,27.81
2022-10-13T15:33:48.122Z,27.77
2022-10-13T15:36:16.347Z,27.74
2022-10-13T15:38:44.641Z,27.75
2022-10-13T15:41:12.774Z,27.79
2022-10-13T15:43:40.993Z,27.87
2022-10-13T15:46:12.980Z,27.72
2022-10-13T15:48:41.250Z,27.65
2022-10-13T15:51:12.697Z,27.63
2022-10-13T15:53:40.911Z,27.59
2022-10-13T15:56:09.547Z,27.56
2022-10-13T15:58:37.855Z,27.58
2022-10-13T16:01:13.079Z,27.52
2022-10-13T16:03:41.982Z,27.51
2022-10-13T16:06:12.520Z,27.46
2022-10-13T16:08:43.876Z,27.37
2022-10-13T16:11:16.506Z,27.33
2022-10-13T16:13:49.347Z,27.23
2022-10-13T16:16:18.360Z,27.35
2022-10-13T16:18:47.183Z,27.28
2022-10-13T16:21:19.052Z,27.37
2022-10-13T16:23:48.275Z,27.27
2022-10-13T16:26:17.823Z,27.35
2022-10-13T16:28:46.991Z,27.23
2022-10-13T16:31:16.898Z,27.23
2022-10-13T16:33:45.809Z,27.27
2022-10-13T16:36:19.199Z,27.33
2022-10-13T16:38:48.188Z,27.24
2022-10-13T16:41:18.404Z,27.25
2022-10-13T16:43:47.393Z,27.35
2022-10-13T16:46:17.825Z,27.34
2022-10-13T16:48:46.721Z,27.27
2022-10-13T16:51:21.080Z,27.35
2022-10-13T16:53:51.161Z,27.35
2022-10-13T16:56:22.784Z,27.41
2022-10-13T16:58:58.432Z,27.47
2022-10-13T17:01:27.626Z,27.48
2022-10-13T17:03:56.378Z,27.53
2022-10-13T17:06:26.620Z,27.54
2022-10-13T17:08:56.807Z,27.67
2022-10-13T17:11:30.348Z,27.71
2022-10-13T17:13:59.575Z,27.80
2022-10-13T17:16:27.962Z,27.88
2022-10-13T17:18:56.610Z,27.88
2022-10-13T17:21:24.845Z,27.91
2022-10-13T17:23:55.016Z,27.96
2022-10-13T17:26:23.498Z,28.01
2022-10-13T17:28:51.873Z,28.01
2022-10-13T17:31:22.113Z,28.00
2022-10-13T17:33:51.635Z,28.03
2022-10-13T17:36:31.857Z,28.07
2022-10-13T17:39:05.634Z,28.11
2022-10-13T17:41:35.085Z,28.14
2022-10-13T17:44:03.646Z,28.18
2022-10-13T17:46:38.038Z,28.19
2022-10-13T17:49:09.389Z,28.22
2022-10-13T17:51:38.087Z,28.25
2022-10-13T17:54:10.139Z,28.26
2022-10-13T17:56:41.304Z,28.27
2022-10-13T17:59:10.175Z,28.25
2022-10-13T18:01:39.072Z,28.28
2022-10-13T18:04:11.224Z,28.27
2022-10-13T18:06:40.877Z,28.29
2022-10-13T18:09:15.296Z,28.31
2022-10-13T18:11:49.706Z,28.31
2022-10-13T18:14:23.652Z,28.35
2022-10-13T18:16:52.653Z,28.50
2022-10-13T18:19:21.868Z,28.38
2022-10-13T18:21:50.274Z,28.41
2022-10-13T18:24:18.739Z,28.43
2022-10-13T18:26:47.096Z,28.47
2022-10-13T18:29:15.391Z,28.47
2022-10-13T18:31:43.832Z,28.48
2022-10-13T18:34:14.574Z,28.48
2022-10-13T18:36:47.927Z,28.48
2022-10-13T18:39:27.841Z,28.49
2022-10-13T18:41:57.503Z,28.51
2022-10-13T18:44:25.861Z,28.51
2022-10-13T18:46:56.625Z,28.54
2022-10-13T18:49:31.417Z,28.58
2022-10-13T18:52:01.424Z,28.57
2022-10-13T18:54:30.424Z,28.54
2022-10-13T18:56:58.887Z,28.63
2022-10-13T18:59:27.090Z,28.77
2022-10-13T19:01:55.349Z,28.71
2022-10-13T19:04:23.603Z,28.65
2022-10-13T19:06:51.911Z,28.67
2022-10-13T19:09:21.764Z,28.69
2022-10-13T19:11:50.269Z,28.68
2022-10-13T19:14:18.722Z,28.69
2022-10-13T19:16:46.973Z,28.70
2022-10-13T19:19:15.215Z,28.72
2022-10-13T19:21:43.599Z,28.72
2022-10-13T19:24:12.011Z,28.73
2022-10-13T19:26:40.514Z,28.71
2022-10-13T19:29:12.067Z,28.72
2022-10-13T19:31:41.800Z,28.74
2022-10-13T19:34:11.793Z,28.74
2022-10-13T19:36:43.203Z,28.70
2022-10-13T19:39:17.974Z,28.71
2022-10-13T19:41:47.574Z,28.73
2022-10-13T19:44:16.969Z,28.84
2022-10-13T19:46:46.358Z,29.08
2022-10-13T19:49:17.172Z,28.84
2022-10-13T19:51:46.399Z,28.51
2022-10-13T19:54:15.289Z,28.42
2022-10-13T19:56:43.638Z,28.33
2022-10-13T19:59:11.860Z,28.33
2022-10-13T20:01:41.245Z,28.29
2022-10-13T20:04:10.166Z,28.25
2022-10-13T20:06:38.579Z,28.22
2022-10-13T20:09:07.017Z,28.23
2022-10-13T20:11:35.386Z,28.19
2022-10-13T20:14:03.922Z,28.21
2022-10-13T20:16:32.411Z,28.07
2022-10-13T20:19:01.236Z,28.06
2022-10-13T20:21:29.855Z,28.06
2022-10-13T20:23:58.018Z,28.00
2022-10-13T20:26:26.571Z,28.00
2022-10-13T20:28:55.365Z,27.96
2022-10-13T20:31:23.982Z,27.98
2022-10-13T20:33:56.970Z,27.90
2022-10-13T20:36:26.622Z,27.88
2022-10-13T20:38:56.064Z,27.88
2022-10-13T20:41:29.542Z,27.84
2022-10-13T20:43:59.056Z,27.83
2022-10-13T20:46:27.595Z,27.87
2022-10-13T20:49:13.142Z,27.86
2022-10-13T20:51:42.984Z,27.80
2022-10-13T20:54:13.652Z,27.75
2022-10-13T20:56:42.606Z,27.71
2022-10-13T20:59:12.598Z,27.72
2022-10-13T21:01:40.838Z,27.70
2022-10-13T21:04:09.872Z,27.70
2022-10-13T21:06:38.238Z,27.72
2022-10-13T21:09:07.022Z,27.67
2022-10-13T21:11:37.181Z,27.69
2022-10-13T21:14:10.014Z,27.61
2022-10-13T21:16:40.755Z,27.61
2022-10-13T21:19:09.539Z,27.60
2022-10-13T21:21:38.398Z,27.65
2022-10-13T21:24:07.979Z,27.69
2022-10-13T21:26:36.981Z,27.77
2022-10-13T21:29:05.785Z,27.79
2022-10-13T21:31:34.622Z,27.85
2022-10-13T21:34:03.385Z,27.86
2022-10-13T21:36:32.832Z,27.86
2022-10-13T21:39:04.167Z,27.85
2022-10-13T21:41:32.706Z,27.86
2022-10-13T21:44:00.900Z,27.85
2022-10-13T21:46:31.233Z,27.83
2022-10-13T21:49:01.374Z,27.79
2022-10-13T21:51:35.251Z,27.83
2022-10-13T21:54:09.661Z,27.72
2022-10-13T21:56:38.826Z,27.81
2022-10-13T21:59:08.275Z,27.87
2022-10-13T22:01:36.481Z,27.87
2022-10-13T22:04:06.513Z,27.87
2022-10-13T22:06:34.834Z,27.90
2022-10-13T22:09:04.357Z,27.90
2022-10-13T22:11:34.329Z,27.88
2022-10-13T22:14:02.624Z,27.85
2022-10-13T22:16:34.163Z,27.86
2022-10-13T22:19:02.596Z,27.83
2022-10-13T22:21:34.247Z,27.83
2022-10-13T22:24:04.943Z,27.84
2022-10-13T22:26:34.775Z,27.81
2022-10-13T22:29:04.711Z,27.82
2022-10-13T22:31:33.631Z,27.81
2022-10-13T22:34:02.724Z,27.80
2022-10-13T22:36:33.833Z,27.80
2022-10-13T22:39:04.697Z,27.80
2022-10-13T22:41:34.060Z,27.81
2022-10-13T22:44:02.403Z,27.80
2022-10-13T22:46:33.482Z,27.77
2022-10-13T22:49:02.239Z,27.77
2022-10-13T22:51:32.476Z,27.75
2022-10-13T22:54:01.036Z,27.77
2022-10-13T22:56:31.995Z,27.77
2022-10-13T22:59:05.858Z,27.76
2022-10-13T23:01:34.322Z,27.74
2022-10-13T23:04:02.545Z,27.75
2022-10-13T23:06:32.477Z,27.73
2022-10-13T23:09:02.016Z,27.74
2022-10-13T23:11:30.477Z,27.72
2022-10-13T23:13:58.796Z,27.72
2022-10-13T23:16:27.429Z,27.71
2022-10-13T23:18:56.115Z,27.71
2022-10-13T23:21:27.423Z,27.71
2022-10-13T23:24:01.339Z,27.69
2022-10-13T23:26:29.834Z,27.67
2022-10-13T23:28:58.833Z,27.68
2022-10-13T23:31:28.132Z,27.67
2022-10-13T23:33:56.518Z,27.66
2022-10-13T23:36:26.881Z,27.65
2022-10-13T23:38:59.883Z,27.64
2022-10-13T23:41:29.920Z,27.64
2022-10-13T23:43:58.591Z,27.64
2022-10-13T23:46:27.068Z,27.62
2022-10-13T23:48:55.521Z,27.63
2022-10-13T23:51:25.750Z,27.63
2022-10-13T23:54:09.585Z,27.62
2022-10-13T23:56:38.805Z,27.62
2022-10-13T23:59:07.002Z,27.62
